Terminal Aerodrome Forecast
Issued by NWS Springfield, MO

Home | Current Version | Previous Version | Text Only | Print | Product List | Glossary On
Versions: 1 2 3 4 5 6 7 8 9 10 11 12 13 14 15 16 17
000
FTUS43 KSGF 262037 AAB
TAFSGF
TAF AMD
KSGF 262037Z 2621/2718 19006KT P6SM VCSH SCT050 OVC080
      TEMPO 2621/2623 4SM TSRA OVC050CB
     FM270000 VRB04KT P6SM BKN110
     FM270600 09006KT P6SM SCT250=

USA.gov is the U.S. government's official web portal to all federal, state and local government web resources and services.